Irwinville, GA (31760)

11:21 PM EST on December 21, 2014 (GMT -0500)
Fitzgerald Municipal | Change Station
CLOSE
Current Station
Airport
Location: Fitzgerald Muni, Fitzgerald,,
Elevation: 364 ft
Nearby Weather Stations

Elev 364 ft 31.68 °N, 83.27 °W | Updated 26 minutes ago

Overcast
Overcast
50 °F
Feels Like 50 °F
N
5
Wind Variable Wind from East

Today
High -- | Low -- °F
--% Chance of Precip.
Yesterday
High -- | Low -- °F
Precip. -- in
7:29 AM 5:34 PM
New Moon, 0% visible
Pressure 30.10 in
Visibility 2.5 miles
Clouds Overcast 300 ft
Dew Point 47 °F
Humidity 92%
Rainfall 0.00 in
Snow Depth Not available.
UV 0 out of 12
Pollen .30 out of 12
Air Quality Not available.
Flu Activity Not available.
METAR KFZG 220355Z AUTO 10004KT 2 1/2SM BR OVC003 10/09 A3010 RMK AO2 T00970085

More Conditions Fewer Conditions

Pressure 30.10 in
Visibility 2.5 miles
Clouds Overcast 300 ft
Dew Point 47 °F
Humidity 92%
Rainfall 0.00 in
Snow Depth Not available.
UV 0 out of 12
Pollen .30 out of 12
Air Quality Not available.
Flu Activity Not available.
METAR KFZG 220355Z AUTO 10004KT 2 1/2SM BR OVC003 10/09 A3010 RMK AO2 T00970085

More Conditions Fewer Conditions

10-Day Weather Forecast

Almanac

Astronomy

Dec. 21, 2014 Rise Set
Actual Time
Civil Twilight
Nautical Twilight
Astronomical Twilight
Moon
Length of Visible Light
Length of Day
Tomorrow will be .
, % of the Moon is Illuminated

Today's Extremes

State Highs State Lows

Community

WunderPhotos

Upload Photos

1,779,537 photos uploaded!

WunderBlogs® & News

Nearby

Air Quality

  Air Quality AQ Index Pollutant
Not available.

Snow Depth

Station Depth Elevation

Earthquake Activity

City Distance Mag. Time & Date
Minimum magnitude displayed is 2.5.

Coastal Water Temperatures

Place Temperature

Nearby Weather Stations